Time;durP1;ratioP1;P1;durP2;ratioP2;P2;SDS_P1;SDS_P2;PMS_P1;PMS_P2;Temp;Humidity;BMP_temperature;BMP_pressure;BME280_temperature;BME280_humidity;BME280_pressure;Samples;Min_cycle;Max_cycle;Signal;HPM_P1;HPM_P2
2022/05/12 00:01:14;;;;;;;19.30;12.70;;;;;;;;;;5085552;28;20058;-74
2022/05/12 00:03:44;;;;;;;25.17;14.40;;;;;;;;;;5086384;28;20048;-75
2022/05/12 00:06:15;;;;;;;25.20;16.83;;;;;;;;;;5086674;28;20071;-74
2022/05/12 00:08:45;;;;;;;35.20;23.17;;;;;;;;;;5086983;28;20059;-74
2022/05/12 00:11:15;;;;;;;30.80;19.88;;;;;;;;;;5086950;28;20048;-75
2022/05/12 00:13:45;;;;;;;24.77;12.00;;;;;;;;;;5086071;28;20048;-74
2022/05/12 00:16:15;;;;;;;16.05;12.68;;;;;;;;;;5086887;28;20054;-75
2022/05/12 00:18:45;;;;;;;29.63;13.55;;;;;;;;;;5086542;28;20043;-75
2022/05/12 00:21:15;;;;;;;22.58;13.27;;;;;;;;;;5086557;28;20040;-75
2022/05/12 00:23:56;;;;;;;19.05;13.40;;;;;;;;;;5086162;28;20048;-75
2022/05/12 00:26:32;;;;;;;21.92;13.80;;;;;;;;;;5085449;28;20450;-75
2022/05/12 00:29:05;;;;;;;22.20;13.50;;;;;;;;;;5086527;28;20050;-75
2022/05/12 00:31:38;;;;;;;18.60;13.10;;;;;;;;;;5086145;28;20040;-75
2022/05/12 00:34:09;;;;;;;24.00;13.20;;;;;;;;;;5087316;28;20040;-76
2022/05/12 00:36:40;;;;;;;17.83;12.85;;;;;;;;;;5086188;28;20052;-76
2022/05/12 00:39:11;;;;;;;20.30;13.35;;;;;;;;;;5086879;28;20070;-75
2022/05/12 00:41:42;;;;;;;17.92;13.43;;;;;;;;;;5090344;28;20040;-75
2022/05/12 00:44:15;;;;;;;18.77;13.17;;;;;;;;;;5090101;28;20063;-76
2022/05/12 00:46:49;;;;;;;23.73;13.60;;;;;;;;;;5090597;28;20290;-75
2022/05/12 00:49:31;;;;;;;26.92;13.02;;;;;;;;;;5090170;28;20052;-75
2022/05/12 00:52:08;;;;;;;14.88;12.18;;;;;;;;;;5090254;28;20044;-76
2022/05/12 00:55:00;;;;;;;15.45;11.30;;;;;;;;;;5089720;28;20040;-75
2022/05/12 00:57:37;;;;;;;21.40;11.98;;;;;;;;;;5090269;28;20052;-75
2022/05/12 01:00:11;;;;;;;18.75;11.75;;;;;;;;;;5089625;28;20060;-75
2022/05/12 01:02:44;;;;;;;16.20;10.43;;;;;;;;;;5089874;28;20078;-75
2022/05/12 01:05:16;;;;;;;17.10;9.68;;;;;;;;;;5089663;28;20055;-75
2022/05/12 01:07:47;;;;;;;24.65;11.75;;;;;;;;;;5089839;28;20797;-75
2022/05/12 01:10:16;;;;;;;22.98;10.65;;;;;;;;;;5089854;28;20047;-75
2022/05/12 01:12:49;;;;;;;17.20;10.75;;;;;;;;;;5088664;28;20514;-75
2022/05/12 01:15:24;;;;;;;17.70;11.25;;;;;;;;;;5088953;28;20047;-75
2022/05/12 01:18:17;;;;;;;18.20;11.13;;;;;;;;;;5090033;28;20062;-75
2022/05/12 01:20:49;;;;;;;21.33;10.60;;;;;;;;;;5089703;28;20055;-75
2022/05/12 01:23:26;;;;;;;;;;;;;;;;;;5090323;28;20040;-75
2022/05/12 01:26:14;;;;;;;14.02;10.32;;;;;;;;;;5088928;28;19924;-75
2022/05/12 01:28:44;;;;;;;14.93;10.55;;;;;;;;;;5089445;28;20047;-75
2022/05/12 01:31:17;;;;;;;16.35;10.73;;;;;;;;;;5089314;28;20051;-75
2022/05/12 01:33:48;;;;;;;17.05;9.82;;;;;;;;;;5087419;28;20416;-75
2022/05/12 01:36:19;;;;;;;16.98;9.88;;;;;;;;;;5086491;28;20044;-75
2022/05/12 01:38:50;;;;;;;16.00;9.68;;;;;;;;;;5087795;28;20040;-75
2022/05/12 01:41:20;;;;;;;13.27;10.20;;;;;;;;;;5087624;28;20048;-75
2022/05/12 01:43:51;;;;;;;18.67;10.48;;;;;;;;;;5086923;28;20492;-75
2022/05/12 01:46:22;;;;;;;15.63;10.77;;;;;;;;;;5086843;28;20059;-75
2022/05/12 01:48:52;;;;;;;17.25;10.95;;;;;;;;;;5088087;28;20411;-75
2022/05/12 01:51:22;;;;;;;38.90;11.10;;;;;;;;;;5088515;28;20067;-75
2022/05/12 01:53:52;;;;;;;18.30;10.27;;;;;;;;;;5088883;28;20048;-75
2022/05/12 01:56:22;;;;;;;18.98;9.43;;;;;;;;;;5089507;28;20040;-75
2022/05/12 01:58:52;;;;;;;20.08;11.65;;;;;;;;;;5089305;28;20055;-75
2022/05/12 02:01:22;;;;;;;19.40;11.35;;;;;;;;;;5089141;28;20055;-75
2022/05/12 02:03:52;;;;;;;19.85;10.63;;;;;;;;;;5089523;28;20055;-75
2022/05/12 02:06:22;;;;;;;14.18;9.15;;;;;;;;;;5089423;28;20062;-75
2022/05/12 02:08:52;;;;;;;19.13;10.85;;;;;;;;;;5089688;28;20047;-75
2022/05/12 02:11:22;;;;;;;20.90;10.55;;;;;;;;;;5088830;28;20048;-75
2022/05/12 02:13:52;;;;;;;27.13;13.23;;;;;;;;;;5087910;28;20048;-75
2022/05/12 02:16:25;;;;;;;18.63;11.88;;;;;;;;;;5089024;28;20060;-75
2022/05/12 02:18:55;;;;;;;20.90;12.15;;;;;;;;;;5089045;28;20051;-75
2022/05/12 02:21:25;;;;;;;20.58;11.60;;;;;;;;;;5089093;28;20040;-75
2022/05/12 02:23:55;;;;;;;373.63;15.23;;;;;;;;;;5087859;28;20056;-75
2022/05/12 02:26:24;;;;;;;19.52;9.13;;;;;;;;;;5089594;28;20056;-75
2022/05/12 02:28:55;;;;;;;19.48;8.75;;;;;;;;;;5088031;28;20047;-75
2022/05/12 02:31:26;;;;;;;10.20;7.80;;;;;;;;;;5088431;28;20522;-75
2022/05/12 02:33:56;;;;;;;24.10;10.20;;;;;;;;;;5088611;28;20047;-75
2022/05/12 02:36:26;;;;;;;17.90;10.98;;;;;;;;;;5088803;28;20410;-75
2022/05/12 02:38:56;;;;;;;14.10;9.95;;;;;;;;;;5088454;28;20040;-75
2022/05/12 02:41:26;;;;;;;15.52;12.05;;;;;;;;;;5088335;28;20048;-75
2022/05/12 02:43:56;;;;;;;13.88;11.00;;;;;;;;;;5088385;28;20036;-75
2022/05/12 02:46:26;;;;;;;19.35;10.75;;;;;;;;;;5085966;28;20067;-75
2022/05/12 02:48:56;;;;;;;18.23;10.65;;;;;;;;;;5088493;28;20510;-75
2022/05/12 02:51:26;;;;;;;23.00;11.60;;;;;;;;;;5088288;28;20056;-75
2022/05/12 02:53:56;;;;;;;13.65;10.75;;;;;;;;;;5088267;28;20036;-75
2022/05/12 02:56:26;;;;;;;19.60;11.60;;;;;;;;;;5088170;28;20043;-75
2022/05/12 02:58:56;;;;;;;19.08;11.13;;;;;;;;;;5088189;28;20592;-75
2022/05/12 03:01:26;;;;;;;16.50;9.73;;;;;;;;;;5087319;28;20426;-75
2022/05/12 03:03:56;;;;;;;19.85;11.43;;;;;;;;;;5088001;28;20048;-75
2022/05/12 03:06:27;;;;;;;13.10;10.38;;;;;;;;;;5088157;28;20032;-75
2022/05/12 03:08:58;;;;;;;79.75;9.02;;;;;;;;;;5088152;28;20052;-75
2022/05/12 03:11:28;;;;;;;24.52;11.85;;;;;;;;;;5087774;28;20048;-75
2022/05/12 03:13:59;;;;;;;19.95;12.68;;;;;;;;;;5088135;28;20055;-75
2022/05/12 03:16:29;;;;;;;24.57;13.70;;;;;;;;;;5087883;28;20052;-75
2022/05/12 03:19:00;;;;;;;30.45;13.00;;;;;;;;;;5087904;28;20044;-75
2022/05/12 03:21:30;;;;;;;32.28;13.90;;;;;;;;;;5087035;28;20074;-75
2022/05/12 03:24:00;;;;;;;19.50;11.30;;;;;;;;;;5086466;28;20047;-75
2022/05/12 03:26:31;;;;;;;21.25;13.00;;;;;;;;;;5087018;28;20043;-75
2022/05/12 03:29:01;;;;;;;21.88;13.30;;;;;;;;;;5087564;28;20055;-75
2022/05/12 03:31:31;;;;;;;24.50;13.48;;;;;;;;;;5087510;28;20415;-75
2022/05/12 03:34:01;;;;;;;25.23;14.73;;;;;;;;;;5087516;28;20419;-75
2022/05/12 03:36:35;;;;;;;23.42;13.25;;;;;;;;;;5088051;28;20036;-76
2022/05/12 03:39:07;;;;;;;24.17;14.05;;;;;;;;;;5087646;28;20055;-74
2022/05/12 03:41:38;;;;;;;25.13;12.77;;;;;;;;;;5087669;28;20059;-75
2022/05/12 03:46:56;;;;;;;20.73;14.20;;;;;;;;;;5086963;28;20053;-75
2022/05/12 03:49:26;;;;;;;23.48;15.35;;;;;;;;;;5087051;28;20047;-75
2022/05/12 03:51:57;;;;;;;31.15;15.05;;;;;;;;;;5086993;28;20091;-75
2022/05/12 03:54:27;;;;;;;;;;;;;;;;;;5088097;28;20058;-75
2022/05/12 03:56:58;;;;;;;20.65;12.77;;;;;;;;;;5086884;28;19935;-75
2022/05/12 03:59:28;;;;;;;23.27;14.23;;;;;;;;;;5087322;28;20051;-75
2022/05/12 04:01:58;;;;;;;20.58;12.88;;;;;;;;;;5087477;28;20462;-75
2022/05/12 04:04:28;;;;;;;26.98;12.90;;;;;;;;;;5086791;28;20052;-75
2022/05/12 04:06:59;;;;;;;22.17;13.13;;;;;;;;;;5087199;28;20419;-75
2022/05/12 04:09:30;;;;;;;23.02;11.90;;;;;;;;;;5086760;28;20388;-75
2022/05/12 04:12:00;;;;;;;19.27;10.95;;;;;;;;;;5086856;28;20048;-75
2022/05/12 04:14:29;;;;;;;12.50;10.02;;;;;;;;;;5084097;28;20048;-75
2022/05/12 04:17:00;;;;;;;15.93;11.80;;;;;;;;;;5086855;28;20498;-75
2022/05/12 04:19:30;;;;;;;23.80;11.60;;;;;;;;;;5086832;28;21107;-74
2022/05/12 04:22:00;;;;;;;20.73;12.48;;;;;;;;;;5086810;28;20523;-74
2022/05/12 04:24:30;;;;;;;25.33;13.63;;;;;;;;;;5087552;28;20044;-74
2022/05/12 04:27:00;;;;;;;18.65;12.10;;;;;;;;;;5086539;28;20388;-75
2022/05/12 04:29:30;;;;;;;25.65;10.55;;;;;;;;;;5086803;28;20044;-74
2022/05/12 04:32:00;;;;;;;23.02;11.35;;;;;;;;;;5086740;28;20044;-74
2022/05/12 04:37:18;;;;;;;34.15;9.85;;;;;;;;;;5086155;28;20119;-75
2022/05/12 04:39:48;;;;;;;13.93;10.07;;;;;;;;;;5087105;28;20078;-74
2022/05/12 04:42:18;;;;;;;16.20;9.63;;;;;;;;;;5086414;28;20044;-75
2022/05/12 04:44:48;;;;;;;17.35;9.88;;;;;;;;;;5086646;28;20060;-75
2022/05/12 04:47:18;;;;;;;17.83;10.18;;;;;;;;;;5086617;28;20040;-75
2022/05/12 04:49:48;;;;;;;15.40;10.45;;;;;;;;;;5086488;28;20056;-74
2022/05/12 04:52:18;;;;;;;26.27;11.75;;;;;;;;;;5086437;28;20052;-74
2022/05/12 04:54:48;;;;;;;21.48;11.05;;;;;;;;;;5086623;28;20048;-74
2022/05/12 04:57:18;;;;;;;24.80;11.48;;;;;;;;;;5086564;28;20063;-74
2022/05/12 04:59:55;;;;;;;16.92;10.52;;;;;;;;;;5086586;28;20047;-74
2022/05/12 05:02:25;;;;;;;25.70;11.20;;;;;;;;;;5086524;28;20055;-74
2022/05/12 05:04:55;;;;;;;20.88;11.48;;;;;;;;;;5084295;28;20055;-74
2022/05/12 05:07:26;;;;;;;19.02;11.35;;;;;;;;;;5084830;28;20066;-74
2022/05/12 05:09:56;;;;;;;;;;;;;;;;;;5086974;28;20044;-75
2022/05/12 05:12:26;;;;;;;22.73;10.63;;;;;;;;;;5084885;28;19924;-75
2022/05/12 05:14:56;;;;;;;22.25;10.40;;;;;;;;;;5086504;28;20047;-75
2022/05/12 05:17:28;;;;;;;20.95;11.13;;;;;;;;;;5086278;28;20036;-75
2022/05/12 05:19:58;;;;;;;22.50;10.15;;;;;;;;;;5086057;28;20044;-75
2022/05/12 05:22:28;;;;;;;21.88;10.70;;;;;;;;;;5086409;28;20090;-75
2022/05/12 05:24:58;;;;;;;25.67;10.95;;;;;;;;;;5087116;28;20036;-75
2022/05/12 05:27:28;;;;;;;19.40;10.95;;;;;;;;;;5089352;28;20526;-75
2022/05/12 05:29:58;;;;;;;21.90;11.38;;;;;;;;;;5089847;28;20048;-75
2022/05/12 05:32:28;;;;;;;22.23;10.98;;;;;;;;;;5088188;28;20396;-74
2022/05/12 05:34:59;;;;;;;19.08;10.82;;;;;;;;;;5088302;28;20518;-74
2022/05/12 05:37:29;;;;;;;23.55;10.65;;;;;;;;;;5089761;28;20044;-74
2022/05/12 05:39:59;;;;;;;20.52;10.82;;;;;;;;;;5089956;28;20694;-74
2022/05/12 05:42:28;;;;;;;16.70;10.35;;;;;;;;;;5089899;28;20054;-75
2022/05/12 05:45:00;;;;;;;23.80;10.52;;;;;;;;;;5089484;28;20411;-74
2022/05/12 05:47:31;;;;;;;28.02;11.18;;;;;;;;;;5089763;28;20056;-74
2022/05/12 05:50:02;;;;;;;22.83;11.45;;;;;;;;;;5088050;28;20064;-74
2022/05/12 05:55:42;;;;;;;20.88;11.30;;;;;;;;;;5027021;28;20045;-75
2022/05/12 05:58:12;;;;;;;15.73;10.27;;;;;;;;;;5027101;28;20038;-75
2022/05/12 06:00:43;;;;;;;20.13;10.93;;;;;;;;;;5060163;28;20067;-75
2022/05/12 06:03:14;;;;;;;17.13;11.10;;;;;;;;;;5089808;28;20403;-75
2022/05/12 06:05:45;;;;;;;13.60;10.38;;;;;;;;;;5089157;28;20605;-75
2022/05/12 06:08:17;;;;;;;19.58;10.70;;;;;;;;;;5089052;28;20060;-75
2022/05/12 06:10:48;;;;;;;14.50;10.13;;;;;;;;;;5089395;28;20044;-75
2022/05/12 06:13:18;;;;;;;14.40;10.50;;;;;;;;;;5088610;28;20438;-75
2022/05/12 06:15:49;;;;;;;15.20;10.15;;;;;;;;;;5088612;28;20048;-74
2022/05/12 06:18:18;;;;;;;;;;;;;;;;;;5090177;28;20050;-74
2022/05/12 06:20:50;;;;;;;15.02;9.65;;;;;;;;;;5087886;28;19924;-73
2022/05/12 06:23:21;;;;;;;16.50;10.15;;;;;;;;;;5089166;28;20048;-73
2022/05/12 06:25:51;;;;;;;19.90;10.68;;;;;;;;;;5088682;28;20055;-74
2022/05/12 06:28:21;;;;;;;20.13;10.50;;;;;;;;;;5088479;28;20047;-74
2022/05/12 06:30:51;;;;;;;16.17;10.50;;;;;;;;;;5088380;28;20503;-74
2022/05/12 06:33:22;;;;;;;14.77;10.45;;;;;;;;;;5088335;28;20044;-73
2022/05/12 06:35:55;;;;;;;14.63;9.95;;;;;;;;;;5086802;28;20403;-74
2022/05/12 06:38:25;;;;;;;17.67;10.40;;;;;;;;;;5087827;28;20768;-74
2022/05/12 06:40:55;;;;;;;26.33;11.80;;;;;;;;;;5089265;28;20414;-73
2022/05/12 06:43:25;;;;;;;14.10;10.20;;;;;;;;;;5088329;28;20407;-73
2022/05/12 06:45:56;;;;;;;14.27;10.40;;;;;;;;;;5088470;28;20059;-74
2022/05/12 06:48:27;;;;;;;16.90;10.25;;;;;;;;;;5088306;28;20051;-73
2022/05/12 06:50:57;;;;;;;18.88;10.27;;;;;;;;;;5087630;28;20762;-73
2022/05/12 06:53:26;;;;;;;12.25;9.77;;;;;;;;;;5088460;28;20039;-73
2022/05/12 06:55:56;;;;;;;14.23;10.48;;;;;;;;;;5088009;28;20071;-73
2022/05/12 06:58:27;;;;;;;16.40;9.93;;;;;;;;;;5088343;28;20059;-74
2022/05/12 07:00:56;;;;;;;14.95;10.75;;;;;;;;;;5088089;28;20040;-74
2022/05/12 07:03:27;;;;;;;17.05;10.98;;;;;;;;;;5088221;28;20058;-74
2022/05/12 07:05:58;;;;;;;22.15;11.45;;;;;;;;;;5087941;28;20048;-74
2022/05/12 07:08:28;;;;;;;;;;;;;;;;;;5088551;28;20407;-74
2022/05/12 07:10:58;;;;;;;23.90;11.10;;;;;;;;;;5087828;28;19924;-73
2022/05/12 07:13:28;;;;;;;24.67;12.95;;;;;;;;;;5087248;28;20051;-74
2022/05/12 07:15:58;;;;;;;27.35;12.52;;;;;;;;;;5087833;28;20055;-74
2022/05/12 07:18:29;;;;;;;18.27;12.68;;;;;;;;;;5088064;28;20075;-73
2022/05/12 07:26:54;;;;;;;14.48;8.65;;;;;;;;;;5088245;28;20691;-73
2022/05/12 07:29:27;;;;;;;12.82;8.52;;;;;;;;;;5087765;28;20059;-74
2022/05/12 07:31:58;;;;;;;18.55;8.95;;;;;;;;;;5087555;28;20059;-74
2022/05/12 07:34:28;;;;;;;20.38;9.73;;;;;;;;;;5087497;28;20055;-73
2022/05/12 07:36:58;;;;;;;19.80;9.60;;;;;;;;;;5087386;28;20525;-73
2022/05/12 07:39:30;;;;;;;16.35;9.48;;;;;;;;;;5087753;28;20483;-74
2022/05/12 07:42:03;;;;;;;18.02;9.02;;;;;;;;;;5087532;28;20066;-74
2022/05/12 07:44:34;;;;;;;24.23;9.02;;;;;;;;;;5087625;28;20055;-73
2022/05/12 07:47:13;;;;;;;;;;;;;;;;;;5088278;28;20052;-73
2022/05/12 07:49:44;;;;;;;15.98;8.75;;;;;;;;;;5087333;28;19927;-73
2022/05/12 07:52:15;;;;;;;24.27;8.55;;;;;;;;;;5087142;28;20052;-73
2022/05/12 07:54:44;;;;;;;;;;;;;;;;;;5087668;28;20040;-73
2022/05/12 07:57:14;;;;;;;19.27;10.93;;;;;;;;;;5087197;28;19951;-75
2022/05/12 07:59:45;;;;;;;23.27;12.77;;;;;;;;;;5087186;28;20049;-73
2022/05/12 08:02:16;;;;;;;29.92;13.00;;;;;;;;;;5087236;28;20047;-74
2022/05/12 08:04:47;;;;;;;18.90;9.80;;;;;;;;;;5087069;28;20048;-73
2022/05/12 08:07:16;;;;;;;23.65;11.10;;;;;;;;;;5086734;28;20062;-74
2022/05/12 08:09:46;;;;;;;17.25;9.27;;;;;;;;;;5086545;28;20487;-74
2022/05/12 08:12:16;;;;;;;22.80;8.75;;;;;;;;;;5087288;28;20056;-73
2022/05/12 08:14:46;;;;;;;19.10;9.75;;;;;;;;;;5086496;28;20056;-73
2022/05/12 08:17:17;;;;;;;20.33;8.43;;;;;;;;;;5087082;28;20059;-73
2022/05/12 08:19:47;;;;;;;15.05;10.07;;;;;;;;;;5087113;28;20051;-74
2022/05/12 08:22:17;;;;;;;19.33;9.52;;;;;;;;;;5086903;28;20043;-74
2022/05/12 08:24:46;;;;;;;16.98;9.65;;;;;;;;;;5086643;28;20040;-74
2022/05/12 08:27:17;;;;;;;19.05;10.55;;;;;;;;;;5086687;28;20040;-74
2022/05/12 08:29:46;;;;;;;14.75;9.10;;;;;;;;;;5087015;28;20040;-74
2022/05/12 08:32:16;;;;;;;20.02;9.98;;;;;;;;;;5086683;28;20483;-74
2022/05/12 08:34:46;;;;;;;17.90;10.88;;;;;;;;;;5086586;28;20051;-74
2022/05/12 08:37:17;;;;;;;24.15;9.70;;;;;;;;;;5086135;28;20523;-74
2022/05/12 08:39:47;;;;;;;21.75;9.63;;;;;;;;;;5086636;28;20048;-74
2022/05/12 08:42:23;;;;;;;18.10;9.85;;;;;;;;;;5086716;28;20048;-74
2022/05/12 08:44:55;;;;;;;23.58;9.15;;;;;;;;;;5087058;28;20051;-73
2022/05/12 08:47:36;;;;;;;27.77;8.65;;;;;;;;;;5085931;28;20062;-74
2022/05/12 08:50:22;;;;;;;16.05;8.80;;;;;;;;;;5086086;28;20055;-74
2022/05/12 08:53:05;;;;;;;18.15;7.72;;;;;;;;;;5086462;28;20055;-74
2022/05/12 08:55:47;;;;;;;21.05;8.48;;;;;;;;;;5087135;28;20542;-74
2022/05/12 08:58:23;;;;;;;13.63;8.30;;;;;;;;;;5086525;28;20507;-73
2022/05/12 09:01:23;;;;;;;13.65;8.63;;;;;;;;;;5089056;28;20051;-74
2022/05/12 09:04:11;;;;;;;18.63;9.57;;;;;;;;;;5090398;28;20040;-74
2022/05/12 09:07:18;;;;;;;16.23;9.88;;;;;;;;;;5090147;28;20403;-74
2022/05/12 09:10:13;;;;;;;14.98;9.18;;;;;;;;;;5090735;28;20402;-74
2022/05/12 09:12:53;;;;;;;14.98;8.98;;;;;;;;;;5089958;28;20514;-74
2022/05/12 09:15:38;;;;;;;26.63;10.10;;;;;;;;;;5090534;28;20043;-74
2022/05/12 09:18:29;;;;;;;14.52;8.80;;;;;;;;;;5089769;28;20067;-74
2022/05/12 09:21:06;;;;;;;12.90;9.13;;;;;;;;;;5088111;28;20064;-74
2022/05/12 09:23:37;;;;;;;26.30;10.35;;;;;;;;;;5090107;28;20055;-74
2022/05/12 09:26:31;;;;;;;23.35;10.07;;;;;;;;;;5088413;28;20052;-74
2022/05/12 09:29:24;;;;;;;17.17;10.00;;;;;;;;;;5090335;28;20044;-74
2022/05/12 09:32:15;;;;;;;18.45;10.00;;;;;;;;;;5090729;28;20040;-74
2022/05/12 09:35:02;;;;;;;18.40;10.32;;;;;;;;;;5089123;28;20048;-74
2022/05/12 09:37:32;;;;;;;30.15;11.50;;;;;;;;;;5089857;28;20036;-74
2022/05/12 09:40:36;;;;;;;21.23;11.55;;;;;;;;;;5089874;28;20507;-74
2022/05/12 09:43:24;;;;;;;33.78;11.90;;;;;;;;;;5090203;28;20048;-75
2022/05/12 09:46:31;;;;;;;27.52;15.48;;;;;;;;;;5089325;28;20059;-74
2022/05/12 09:49:23;;;;;;;37.53;17.58;;;;;;;;;;5089899;28;20419;-74
2022/05/12 09:51:53;;;;;;;40.55;16.60;;;;;;;;;;5090689;28;20044;-74
2022/05/12 09:54:28;;;;;;;58.78;28.20;;;;;;;;;;5089103;28;20052;-74
2022/05/12 09:57:03;;;;;;;64.15;29.85;;;;;;;;;;5089463;28;20051;-74
2022/05/12 09:59:33;;;;;;;57.08;30.75;;;;;;;;;;5089823;28;20040;-74
2022/05/12 10:02:11;;;;;;;62.85;31.30;;;;;;;;;;5089106;28;20048;-75
2022/05/12 10:10:26;;;;;;;67.40;28.42;;;;;;;;;;5090182;28;20059;-74
2022/05/12 10:13:13;;;;;;;76.80;29.42;;;;;;;;;;5089281;28;20423;-74
2022/05/12 10:15:45;;;;;;;65.68;27.35;;;;;;;;;;5089946;28;20048;-73
2022/05/12 10:18:26;;;;;;;91.20;29.60;;;;;;;;;;5089160;28;20526;-72
2022/05/12 10:21:00;;;;;;;;;;;;;;;;;;5089592;28;20055;-76
2022/05/12 10:24:02;;;;;;;83.05;29.30;;;;;;;;;;5088492;28;19924;-72
2022/05/12 10:26:42;;;;;;;67.45;30.20;;;;;;;;;;5072479;28;20087;-75
2022/05/12 10:29:43;;;;;;;61.78;28.92;;;;;;;;;;5088577;28;20050;-76
2022/05/12 10:32:58;;;;;;;49.20;25.83;;;;;;;;;;5089905;28;20044;-75
2022/05/12 10:35:54;;;;;;;43.80;24.75;;;;;;;;;;5073298;28;20068;-75
2022/05/12 10:38:36;;;;;;;41.13;21.40;;;;;;;;;;5086975;28;20522;-74
2022/05/12 10:41:21;;;;;;;44.20;25.42;;;;;;;;;;5087911;28;20052;-75
2022/05/12 10:44:02;;;;;;;45.35;21.65;;;;;;;;;;5087688;28;20055;-74
2022/05/12 10:46:46;;;;;;;41.97;23.27;;;;;;;;;;5087900;28;20044;-74
2022/05/12 10:49:38;;;;;;;40.08;20.17;;;;;;;;;;5088589;28;20052;-75
2022/05/12 10:52:33;;;;;;;36.17;19.50;;;;;;;;;;5086915;28;20043;-73
2022/05/12 10:55:07;;;;;;;38.30;18.33;;;;;;;;;;5088258;28;20055;-74
2022/05/12 10:58:22;;;;;;;35.17;20.38;;;;;;;;;;5088830;28;20047;-75
2022/05/12 11:00:55;;;;;;;39.50;19.35;;;;;;;;;;5087998;28;20051;-80
2022/05/12 11:03:35;;;;;;;39.88;19.35;;;;;;;;;;5088320;28;20054;-75
2022/05/12 11:06:12;;;;;;;29.83;17.90;;;;;;;;;;5088452;28;20794;-75
2022/05/12 11:08:48;;;;;;;29.42;17.15;;;;;;;;;;5087609;28;20047;-74
2022/05/12 11:11:26;;;;;;;29.70;16.58;;;;;;;;;;5087846;28;20533;-76
2022/05/12 11:14:22;;;;;;;24.65;14.32;;;;;;;;;;5088129;28;20040;-81
2022/05/12 11:17:11;;;;;;;18.08;13.68;;;;;;;;;;5087898;28;20055;-74
2022/05/12 11:19:57;;;;;;;27.38;17.67;;;;;;;;;;5087386;28;20406;-73
2022/05/12 11:22:43;;;;;;;25.75;14.65;;;;;;;;;;5087928;28;20063;-76
2022/05/12 11:25:18;;;;;;;25.17;14.77;;;;;;;;;;5087397;28;20051;-83
2022/05/12 11:31:47;;;;;;;20.80;13.77;;;;;;;;;;5083882;28;20052;-74
2022/05/12 11:34:24;;;;;;;19.92;13.40;;;;;;;;;;5073653;28;20056;-75
2022/05/12 11:36:57;;;;;;;27.65;13.52;;;;;;;;;;5085708;28;20044;-75
2022/05/12 11:39:38;;;;;;;20.50;13.48;;;;;;;;;;5085894;28;20051;-74
2022/05/12 11:42:21;;;;;;;24.27;12.52;;;;;;;;;;5085985;28;20407;-74
2022/05/12 11:45:04;;;;;;;21.70;12.55;;;;;;;;;;5085695;28;20422;-75
2022/05/12 11:47:52;;;;;;;17.67;11.40;;;;;;;;;;5087053;28;20047;-74
2022/05/12 11:50:47;;;;;;;14.95;10.82;;;;;;;;;;5086729;28;20044;-75
2022/05/12 11:53:50;;;;;;;20.48;10.40;;;;;;;;;;5087001;28;20044;-74
2022/05/12 11:56:40;;;;;;;10.93;8.82;;;;;;;;;;5087186;28;20048;-74
2022/05/12 11:59:13;;;;;;;12.07;8.02;;;;;;;;;;5087520;28;20055;-75
2022/05/12 12:01:51;;;;;;;17.80;9.43;;;;;;;;;;5086809;28;20066;-75
2022/05/12 12:04:39;;;;;;;15.07;8.77;;;;;;;;;;5087196;28;20055;-75
2022/05/12 12:07:24;;;;;;;15.95;8.70;;;;;;;;;;5086767;28;20079;-75
2022/05/12 12:10:07;;;;;;;16.67;8.60;;;;;;;;;;5086033;28;20063;-76
2022/05/12 12:12:43;;;;;;;16.25;8.18;;;;;;;;;;5087082;28;20075;-77
2022/05/12 12:15:39;;;;;;;21.02;7.55;;;;;;;;;;5086613;28;20071;-75
2022/05/12 12:18:19;;;;;;;13.50;7.15;;;;;;;;;;5082517;28;20055;-78
2022/05/12 12:20:52;;;;;;;17.05;7.65;;;;;;;;;;5087017;28;20048;-75
2022/05/12 12:23:24;;;;;;;15.98;7.28;;;;;;;;;;5087421;28;20770;-76
2022/05/12 12:26:23;;;;;;;19.23;6.25;;;;;;;;;;5085594;28;20518;-76
2022/05/12 12:29:09;;;;;;;13.07;5.88;;;;;;;;;;5086505;28;20407;-75
2022/05/12 12:31:51;;;;;;;15.90;4.22;;;;;;;;;;5086857;28;20040;-76
2022/05/12 12:34:41;;;;;;;20.58;5.72;;;;;;;;;;5086984;28;20051;-75
2022/05/12 12:37:31;;;;;;;13.15;4.78;;;;;;;;;;5090506;28;20056;-78
2022/05/12 12:40:21;;;;;;;51.25;7.50;;;;;;;;;;5090570;28;20527;-76
2022/05/12 12:42:57;;;;;;;14.38;6.70;;;;;;;;;;5090284;28;20930;-76
2022/05/12 12:45:28;;;;;;;22.85;6.28;;;;;;;;;;5090849;28;20048;-77
2022/05/12 12:48:15;;;;;;;12.57;5.35;;;;;;;;;;5089636;28;20052;-75
2022/05/12 12:50:53;;;;;;;13.82;5.50;;;;;;;;;;5090447;28;20531;-76
2022/05/12 12:56:31;;;;;;;25.30;6.15;;;;;;;;;;5062753;28;20483;-76
2022/05/12 12:59:17;;;;;;;18.73;5.70;;;;;;;;;;5089753;28;20047;-76
2022/05/12 13:01:56;;;;;;;9.73;4.93;;;;;;;;;;5089537;28;20059;-75
2022/05/12 13:04:31;;;;;;;11.45;4.25;;;;;;;;;;5088884;28;20051;-75
2022/05/12 13:07:04;;;;;;;8.80;4.20;;;;;;;;;;5089115;28;20055;-75
2022/05/12 13:09:39;;;;;;;15.68;4.53;;;;;;;;;;5090104;28;20036;-75
2022/05/12 13:12:13;;;;;;;9.25;3.30;;;;;;;;;;5089333;28;20071;-75
2022/05/12 13:14:45;;;;;;;13.52;4.10;;;;;;;;;;5090212;28;20415;-76
2022/05/12 13:17:28;;;;;;;8.38;3.58;;;;;;;;;;5089959;28;20043;-76
2022/05/12 13:20:00;;;;;;;21.02;5.10;;;;;;;;;;5089458;28;20044;-75
2022/05/12 13:22:53;;;;;;;20.85;4.70;;;;;;;;;;5089258;28;20052;-75
2022/05/12 13:25:30;;;;;;;22.05;4.80;;;;;;;;;;5089810;28;20051;-75
2022/05/12 13:28:01;;;;;;;12.98;3.75;;;;;;;;;;5089927;28;20055;-75
2022/05/12 13:30:41;;;;;;;;;;;;;;;;;;5090192;28;20060;-75
2022/05/12 13:33:20;;;;;;;10.48;3.40;;;;;;;;;;5089859;28;19927;-76
2022/05/12 13:36:03;;;;;;;10.73;3.38;;;;;;;;;;5090024;28;20059;-75
2022/05/12 13:38:44;;;;;;;9.93;3.42;;;;;;;;;;5089712;28;20388;-76
2022/05/12 13:41:31;;;;;;;15.02;3.38;;;;;;;;;;5089066;28;20048;-75
2022/05/12 13:44:11;;;;;;;17.83;3.53;;;;;;;;;;5089424;28;20052;-75
2022/05/12 13:46:50;;;;;;;11.88;3.08;;;;;;;;;;5087572;28;20040;-76
2022/05/12 13:49:37;;;;;;;7.50;1.95;;;;;;;;;;5087606;28;20052;-76
2022/05/12 13:52:22;;;;;;;11.82;3.10;;;;;;;;;;5088300;28;20502;-75
2022/05/12 13:54:58;;;;;;;9.98;2.88;;;;;;;;;;5089829;28;20142;-77
2022/05/12 13:57:34;;;;;;;17.85;3.03;;;;;;;;;;5089749;28;20044;-76
2022/05/12 14:00:11;;;;;;;16.83;3.03;;;;;;;;;;5089242;28;20051;-76
2022/05/12 14:02:48;;;;;;;15.73;3.53;;;;;;;;;;5086974;28;20048;-76
2022/05/12 14:05:27;;;;;;;8.98;2.50;;;;;;;;;;5089679;28;20047;-76
2022/05/12 14:08:23;;;;;;;15.52;3.15;;;;;;;;;;5089120;28;20047;-77
2022/05/12 14:11:03;;;;;;;11.57;2.53;;;;;;;;;;5085016;28;20064;-76
2022/05/12 14:19:37;;;;;;;17.95;3.17;;;;;;;;;;5089093;28;20047;-76
2022/05/12 14:22:11;;;;;;;15.90;4.22;;;;;;;;;;5089161;28;20434;-76
2022/05/12 14:24:45;;;;;;;7.80;2.42;;;;;;;;;;5088839;28;20047;-76
2022/05/12 14:27:17;;;;;;;16.00;3.20;;;;;;;;;;5086857;28;20052;-76
2022/05/12 14:29:47;;;;;;;15.45;3.17;;;;;;;;;;5088765;28;20049;-77
2022/05/12 14:32:18;;;;;;;9.60;2.17;;;;;;;;;;5088826;28;20103;-77
2022/05/12 14:34:52;;;;;;;10.90;2.83;;;;;;;;;;5088759;28;20056;-77
2022/05/12 14:37:23;;;;;;;11.93;2.35;;;;;;;;;;5086063;28;20052;-77
2022/05/12 14:39:53;;;;;;;12.07;2.72;;;;;;;;;;5089088;28;20071;-77
2022/05/12 14:42:23;;;;;;;11.23;2.63;;;;;;;;;;5088221;28;20055;-77
2022/05/12 14:44:53;;;;;;;7.50;2.40;;;;;;;;;;5088706;28;20422;-77
2022/05/12 14:47:28;;;;;;;14.70;3.10;;;;;;;;;;5086407;28;20059;-78
2022/05/12 14:49:58;;;;;;;10.73;2.63;;;;;;;;;;5087401;28;20048;-76
2022/05/12 14:52:28;;;;;;;11.47;2.33;;;;;;;;;;5088170;28;20392;-75
2022/05/12 14:54:58;;;;;;;22.48;3.67;;;;;;;;;;5087184;28;20047;-76
2022/05/12 14:57:28;;;;;;;15.85;2.92;;;;;;;;;;5087390;28;20060;-75
2022/05/12 14:59:59;;;;;;;6.55;1.88;;;;;;;;;;5088025;28;20048;-76
2022/05/12 15:02:47;;;;;;;30.27;4.70;;;;;;;;;;5087848;28;20059;-76
2022/05/12 15:05:25;;;;;;;10.65;2.58;;;;;;;;;;5087154;28;20052;-76
2022/05/12 15:07:55;;;;;;;13.27;3.00;;;;;;;;;;5087832;28;20047;-77
2022/05/12 15:10:26;;;;;;;14.50;2.75;;;;;;;;;;5087939;28;20048;-77
2022/05/12 15:12:56;;;;;;;7.90;1.85;;;;;;;;;;5088227;28;20047;-76
2022/05/12 15:15:26;;;;;;;6.30;2.10;;;;;;;;;;5087342;28;20055;-76
2022/05/12 15:17:57;;;;;;;7.60;2.17;;;;;;;;;;5087648;28;20051;-76
2022/05/12 15:20:27;;;;;;;10.68;2.97;;;;;;;;;;5087831;28;20503;-77
2022/05/12 15:23:00;;;;;;;8.82;2.17;;;;;;;;;;5087224;28;20073;-76
2022/05/12 15:25:31;;;;;;;10.07;2.28;;;;;;;;;;5087850;28;20036;-77
2022/05/12 15:28:01;;;;;;;6.43;2.05;;;;;;;;;;5087417;28;20044;-77
2022/05/12 15:30:31;;;;;;;6.93;1.92;;;;;;;;;;5087629;28;20055;-77
2022/05/12 15:33:01;;;;;;;7.80;2.05;;;;;;;;;;5087427;28;20047;-77
2022/05/12 15:35:31;;;;;;;7.75;2.08;;;;;;;;;;5087513;28;20036;-77
2022/05/12 15:38:01;;;;;;;8.40;2.13;;;;;;;;;;5087245;28;20047;-77
2022/05/12 15:40:33;;;;;;;7.25;2.10;;;;;;;;;;5087606;28;20044;-75
2022/05/12 15:43:05;;;;;;;5.47;1.80;;;;;;;;;;5087041;28;20044;-76
2022/05/12 15:45:35;;;;;;;6.50;1.83;;;;;;;;;;5087020;28;20043;-76